EPPO/POZ METAR and TAF weather

Enter ICAO airport designator
Station Type Date Time Source
EPPO METAR 2020/09/19 03:00 UTC NOAA

EPPO 190300Z 31001KT CAVOK 03/03 Q1026


Station Type Date Time Source
EPPO Decoded METAR 2020/09/19 03:00 UTC NOAA

Poznan, Poland (EPPO) 52-25N 016-50E 92M
Sep 18, 2020 - 11:00 PM EDT / 2020.09.19 0300 UTC
Wind: from the NW (310 degrees) at 1 MPH (1 KT):0
Visibility: greater than 7 mile(s):0
Temperature: 37 F (3 C)
Dew Point: 37 F (3 C)
Relative Humidity: 100%
Pressure (altimeter): 30.30 in. Hg (1026 hPa)
ob: EPPO 190300Z 31001KT CAVOK 03/03 Q1026
cycle: 3

Station Type Date Time Source
EPPO TAF 2020/09/18 18:33 UTC NOAA

TAF EPPO 181730Z 1818/1918 VRB02KT CAVOK
BECMG 1907/1909 09010KT

Example: see airport list